Time;durP1;ratioP1;P1;durP2;ratioP2;P2;SDS_P1;SDS_P2;PMS_P1;PMS_P2;Temp;Humidity;BMP_temperature;BMP_pressure;BME280_temperature;BME280_humidity;BME280_pressure;Samples;Min_cycle;Max_cycle;Signal;HPM_P1;HPM_P2
2022/07/22 00:01:37;;;;;;;3.80;1.45;;;16.00;99.90;;;;;;4863297;29;20053;-86
2022/07/22 00:04:03;;;;;;;1.90;1.20;;;16.00;99.90;;;;;;4845113;29;20049;-86
2022/07/22 00:06:29;;;;;;;3.60;1.90;;;16.00;99.90;;;;;;4847820;29;20045;-86
2022/07/22 00:08:55;;;;;;;1.45;1.25;;;16.00;99.90;;;;;;4863543;29;20125;-86
2022/07/22 00:11:21;;;;;;;2.38;1.58;;;16.00;99.90;;;;;;4878778;29;20084;-86
2022/07/22 00:13:47;;;;;;;4.60;2.65;;;16.00;99.90;;;;;;4832713;29;20061;-89
2022/07/22 00:16:13;;;;;;;2.78;2.08;;;16.00;99.90;;;;;;4862542;29;20058;-86
2022/07/22 00:18:39;;;;;;;6.10;3.63;;;15.90;99.90;;;;;;4844807;29;20045;-86
2022/07/22 00:21:05;;;;;;;5.23;2.47;;;15.90;99.90;;;;;;4829869;29;20401;-85
2022/07/22 00:23:30;;;;;;;2.60;1.90;;;15.90;99.90;;;;;;4814202;29;20110;-85
2022/07/22 00:25:57;;;;;;;2.50;2.20;;;15.90;99.90;;;;;;4830451;29;20396;-86
2022/07/22 00:28:23;;;;;;;5.35;2.70;;;16.00;99.90;;;;;;4824674;29;20053;-85
2022/07/22 00:30:49;;;;;;;4.23;2.23;;;15.90;99.90;;;;;;4829783;29;20068;-85
2022/07/22 00:33:15;;;;;;;5.88;1.90;;;15.90;99.90;;;;;;4844169;29;20354;-88
2022/07/22 00:35:40;;;;;;;6.47;2.67;;;15.90;99.90;;;;;;4841288;29;20118;-85
2022/07/22 00:38:06;;;;;;;2.27;2.07;;;15.90;99.90;;;;;;4831275;29;20063;-86
2022/07/22 00:40:32;;;;;;;1.92;1.77;;;15.90;99.90;;;;;;4832305;29;20332;-87
2022/07/22 00:42:57;;;;;;;6.00;3.07;;;15.90;99.90;;;;;;4847366;29;20445;-86
2022/07/22 00:45:23;;;;;;;3.33;1.83;;;15.90;99.90;;;;;;4831413;29;20388;-87
2022/07/22 00:47:49;;;;;;;3.27;2.30;;;15.80;99.90;;;;;;4832149;29;20301;-87
2022/07/22 00:50:15;;;;;;;2.03;1.70;;;15.90;99.90;;;;;;4844379;29;20046;-86
2022/07/22 00:52:41;;;;;;;7.68;2.22;;;15.90;99.90;;;;;;4829087;29;20049;-86
2022/07/22 00:55:07;;;;;;;;;;;15.90;99.90;;;;;;4829045;29;20522;-87
2022/07/22 00:57:33;;;;;;;6.00;2.08;;;15.80;99.90;;;;;;4833979;29;19978;-87
2022/07/22 01:00:00;;;;;;;5.13;2.10;;;15.80;99.90;;;;;;4844413;29;20046;-87
2022/07/22 01:02:26;;;;;;;4.63;2.80;;;15.90;99.90;;;;;;4829776;29;20321;-87
2022/07/22 01:04:51;;;;;;;3.58;2.97;;;15.90;99.90;;;;;;4832546;29;20057;-87
2022/07/22 01:07:17;;;;;;;6.72;2.40;;;15.80;99.90;;;;;;4862072;29;20128;-87
2022/07/22 01:09:46;;;;;;;3.38;1.75;;;15.90;99.90;;;;;;4831864;29;20139;-87
2022/07/22 01:12:12;;;;;;;2.33;1.83;;;15.80;99.90;;;;;;4830024;29;20074;-87
2022/07/22 01:14:40;;;;;;;7.13;2.72;;;15.80;99.90;;;;;;4842016;29;20041;-87
2022/07/22 01:17:06;;;;;;;5.13;2.40;;;15.80;99.90;;;;;;4843987;29;20120;-87
2022/07/22 01:19:32;;;;;;;3.50;1.73;;;15.80;99.90;;;;;;4857345;29;20552;-87
2022/07/22 01:21:57;;;;;;;4.30;1.77;;;15.80;99.90;;;;;;4828919;29;20294;-87
2022/07/22 01:24:23;;;;;;;6.87;2.17;;;15.80;99.90;;;;;;4843491;29;20294;-86
2022/07/22 01:26:49;;;;;;;2.63;2.20;;;15.80;99.90;;;;;;4856153;29;20538;-87
2022/07/22 01:29:15;;;;;;;4.18;2.13;;;15.70;99.90;;;;;;4844645;29;20062;-87
2022/07/22 01:31:41;;;;;;;4.25;2.03;;;15.80;99.90;;;;;;4843200;29;20085;-87
2022/07/22 01:34:07;;;;;;;2.97;2.08;;;15.80;99.90;;;;;;4828850;29;20061;-86
2022/07/22 01:36:32;;;;;;;3.03;2.72;;;15.80;99.90;;;;;;4844098;29;20128;-86
2022/07/22 01:38:58;;;;;;;3.38;2.15;;;15.80;99.90;;;;;;4843812;29;20049;-87
2022/07/22 01:41:24;;;;;;;2.07;1.80;;;15.80;99.90;;;;;;4843051;29;20204;-88
2022/07/22 01:43:49;;;;;;;2.00;1.80;;;15.80;99.90;;;;;;4828845;29;20057;-86
2022/07/22 01:46:16;;;;;;;4.20;1.87;;;15.80;99.90;;;;;;4842967;29;20341;-86
2022/07/22 01:48:45;;;;;;;5.88;2.58;;;15.70;99.90;;;;;;4827862;29;20049;-86
2022/07/22 01:51:10;;;;;;;4.55;1.98;;;15.70;99.90;;;;;;4844039;29;20057;-86
2022/07/22 01:53:39;;;;;;;3.50;1.80;;;15.80;99.90;;;;;;4829189;29;20216;-87
2022/07/22 01:56:05;;;;;;;8.38;2.97;;;15.70;99.90;;;;;;4849021;29;20127;-87
2022/07/22 01:58:31;;;;;;;5.50;2.13;;;15.70;99.90;;;;;;4841689;29;20079;-87
2022/07/22 02:00:57;;;;;;;3.87;1.50;;;15.70;99.90;;;;;;4843786;29;20085;-87
2022/07/22 02:03:25;;;;;;;4.90;2.13;;;15.70;99.90;;;;;;4854332;29;20314;-87
2022/07/22 02:05:50;;;;;;;3.85;2.10;;;15.70;99.90;;;;;;4843399;29;20136;-87
2022/07/22 02:08:16;;;;;;;4.07;1.80;;;15.60;99.90;;;;;;4859028;29;20094;-87
2022/07/22 02:10:43;;;;;;;2.42;1.48;;;15.60;99.90;;;;;;4872151;29;20302;-87
2022/07/22 02:13:09;;;;;;;5.32;1.65;;;15.60;99.90;;;;;;4843181;29;20129;-87
2022/07/22 02:15:35;;;;;;;3.63;2.22;;;15.70;99.90;;;;;;4827945;29;20412;-86
2022/07/22 02:18:11;;;;;;;2.28;1.65;;;15.60;99.90;;;;;;4861669;29;20530;-87
2022/07/22 02:20:37;;;;;;;1.45;1.30;;;15.60;99.90;;;;;;4858073;29;20141;-87
2022/07/22 02:23:03;;;;;;;1.80;1.65;;;15.60;99.90;;;;;;4828265;29;20107;-87
2022/07/22 02:25:29;;;;;;;5.93;1.80;;;15.60;99.90;;;;;;4828844;29;20056;-92
2022/07/22 02:27:54;;;;;;;1.83;1.43;;;15.60;99.90;;;;;;4852458;29;20306;-87
2022/07/22 02:30:23;;;;;;;3.22;1.80;;;15.60;99.90;;;;;;4851316;29;20493;-86
2022/07/22 02:32:49;;;;;;;8.88;1.83;;;15.60;99.90;;;;;;4846508;29;20501;-87
2022/07/22 02:35:15;;;;;;;2.23;1.70;;;15.50;99.90;;;;;;4846929;29;20111;-87
2022/07/22 02:37:41;;;;;;;4.73;1.50;;;15.50;99.90;;;;;;4862362;29;20065;-87
2022/07/22 02:40:08;;;;;;;5.25;2.47;;;15.40;99.90;;;;;;4834267;29;20304;-87
2022/07/22 02:42:34;;;;;;;1.73;1.33;;;15.50;99.90;;;;;;4838422;29;20092;-87
2022/07/22 02:45:00;;;;;;;2.00;1.55;;;15.50;99.90;;;;;;4831084;29;20497;-87
2022/07/22 02:47:26;;;;;;;2.50;1.45;;;15.40;99.90;;;;;;4859075;29;20118;-87
2022/07/22 02:49:55;;;;;;;2.20;1.45;;;15.50;99.90;;;;;;4849374;29;20061;-87
2022/07/22 02:52:20;;;;;;;3.95;1.98;;;15.50;99.90;;;;;;4836131;29;20053;-87
2022/07/22 02:54:46;;;;;;;5.30;2.10;;;15.40;99.90;;;;;;4848584;29;20040;-86
2022/07/22 02:57:12;;;;;;;3.07;1.53;;;15.50;99.90;;;;;;4856601;29;20517;-87
2022/07/22 02:59:38;;;;;;;3.40;2.22;;;15.40;99.90;;;;;;4857528;29;20871;-86
2022/07/22 03:02:06;;;;;;;3.53;1.55;;;15.50;99.90;;;;;;4852725;29;20505;-86
2022/07/22 03:04:32;;;;;;;2.67;2.30;;;15.50;99.90;;;;;;4846204;29;20140;-87
2022/07/22 03:06:58;;;;;;;3.33;1.17;;;15.50;99.90;;;;;;4846000;29;20306;-87
2022/07/22 03:09:24;;;;;;;1.10;1.00;;;15.50;99.90;;;;;;4831069;29;20054;-87
2022/07/22 03:11:49;;;;;;;3.35;1.52;;;15.50;99.90;;;;;;4841795;29;20053;-86
2022/07/22 03:14:16;;;;;;;2.63;1.30;;;14.70;99.90;;;;;;4849316;29;20049;-86
2022/07/22 03:16:42;;;;;;;6.53;1.17;;;15.50;99.90;;;;;;4847030;29;20053;-88
2022/07/22 03:19:08;;;;;;;2.13;1.60;;;15.50;99.90;;;;;;4830644;29;20050;-86
2022/07/22 03:21:34;;;;;;;1.60;1.27;;;15.40;99.90;;;;;;4846189;29;20050;-87
2022/07/22 03:23:59;;;;;;;1.60;1.07;;;15.40;99.90;;;;;;4845075;29;20826;-86
2022/07/22 03:26:25;;;;;;;1.47;1.13;;;15.40;99.90;;;;;;4845647;29;20050;-86
2022/07/22 03:28:51;;;;;;;2.10;0.93;;;15.40;99.90;;;;;;4845532;29;20181;-87
2022/07/22 03:31:17;;;;;;;;;;;15.40;99.90;;;;;;4864768;29;20298;-86
2022/07/22 03:33:43;;;;;;;2.58;0.98;;;15.40;99.90;;;;;;4863321;29;19924;-87
2022/07/22 03:36:09;;;;;;;3.10;1.20;;;15.40;99.90;;;;;;4863821;29;20049;-86
2022/07/22 03:38:36;;;;;;;1.95;1.02;;;15.40;99.90;;;;;;4847462;29;20121;-86
2022/07/22 03:41:03;;;;;;;1.42;1.15;;;15.30;99.90;;;;;;4863821;29;20084;-87
2022/07/22 03:43:29;;;;;;;4.35;1.80;;;15.40;99.90;;;;;;4860480;29;20049;-87
2022/07/22 03:45:54;;;;;;;2.13;1.25;;;15.40;99.90;;;;;;4832891;29;20051;-86
2022/07/22 03:48:20;;;;;;;1.93;1.23;;;15.40;99.90;;;;;;4829268;29;20046;-87
2022/07/22 03:50:46;;;;;;;5.47;1.43;;;15.30;99.90;;;;;;4830070;29;20054;-87
2022/07/22 03:53:11;;;;;;;5.03;1.47;;;15.30;99.90;;;;;;4830372;29;20496;-87
2022/07/22 03:55:37;;;;;;;1.70;1.57;;;15.40;99.90;;;;;;4814922;29;20470;-87
2022/07/22 03:58:03;;;;;;;3.57;1.13;;;15.40;99.90;;;;;;4832778;29;20056;-86
2022/07/22 04:00:29;;;;;;;2.23;1.10;;;15.30;99.90;;;;;;4830182;29;20493;-87
2022/07/22 04:02:55;;;;;;;2.30;1.77;;;15.30;99.90;;;;;;4844876;29;20064;-86
2022/07/22 04:05:20;;;;;;;2.30;1.50;;;15.30;99.90;;;;;;4860706;29;20049;-87
2022/07/22 04:07:46;;;;;;;5.77;2.77;;;15.30;99.90;;;;;;4863274;29;20045;-87
2022/07/22 04:10:12;;;;;;;3.60;1.23;;;15.40;99.90;;;;;;4843923;29;20310;-87
2022/07/22 04:12:39;;;;;;;2.35;1.38;;;15.30;99.90;;;;;;4829683;29;20104;-87
2022/07/22 04:15:06;;;;;;;3.80;1.25;;;15.30;99.90;;;;;;4842711;29;20068;-87
2022/07/22 04:17:32;;;;;;;1.50;1.20;;;15.30;99.90;;;;;;4829917;29;20120;-87
2022/07/22 04:20:00;;;;;;;4.43;1.35;;;15.30;99.90;;;;;;4829498;29;20045;-87
2022/07/22 04:22:29;;;;;;;2.30;1.08;;;15.30;99.90;;;;;;4860160;29;20136;-86
2022/07/22 04:24:55;;;;;;;1.55;0.98;;;15.30;99.90;;;;;;4829773;29;20056;-86
2022/07/22 04:27:21;;;;;;;4.63;1.20;;;15.30;99.90;;;;;;4861219;29;20045;-86
2022/07/22 04:29:47;;;;;;;2.67;1.27;;;15.30;99.90;;;;;;4854542;29;20091;-88
2022/07/22 04:32:13;;;;;;;0.80;0.75;;;15.30;99.90;;;;;;4829572;29;20077;-86
2022/07/22 04:34:38;;;;;;;1.77;1.20;;;15.30;99.90;;;;;;4855472;29;20124;-86
2022/07/22 04:37:04;;;;;;;2.80;1.57;;;15.30;99.90;;;;;;4816778;29;20060;-86
2022/07/22 04:39:30;;;;;;;3.97;1.27;;;15.30;99.90;;;;;;4813231;29;20469;-86
2022/07/22 04:41:56;;;;;;;4.30;1.27;;;15.40;99.90;;;;;;4844029;29;20306;-86
2022/07/22 04:44:21;;;;;;;3.28;1.33;;;15.40;99.90;;;;;;4851175;29;20046;-86
2022/07/22 04:46:47;;;;;;;3.53;1.17;;;15.40;99.90;;;;;;4847371;29;20048;-92
2022/07/22 04:49:13;;;;;;;2.60;1.40;;;15.40;99.90;;;;;;4845846;29;20116;-86
2022/07/22 04:51:38;;;;;;;1.73;1.10;;;15.40;99.90;;;;;;4844291;29;20056;-86
2022/07/22 04:54:04;;;;;;;1.67;1.10;;;15.30;99.90;;;;;;4847996;29;20141;-86
2022/07/22 04:56:30;;;;;;;4.77;1.77;;;15.40;99.90;;;;;;4833778;29;20499;-86
2022/07/22 04:58:55;;;;;;;3.17;1.37;;;15.40;99.90;;;;;;4846713;29;20302;-87
2022/07/22 05:01:21;;;;;;;1.97;1.10;;;15.40;99.90;;;;;;4862125;29;20049;-86
2022/07/22 05:03:47;;;;;;;1.90;1.20;;;15.40;99.90;;;;;;4862803;29;20056;-86
2022/07/22 05:06:13;;;;;;;1.97;1.23;;;15.40;99.90;;;;;;4845551;29;20045;-87
2022/07/22 05:08:39;;;;;;;2.47;1.23;;;15.40;99.90;;;;;;4844149;29;20077;-86
2022/07/22 05:11:04;;;;;;;2.22;1.33;;;15.40;99.90;;;;;;4828936;29;20092;-87
2022/07/22 05:13:30;;;;;;;3.13;1.50;;;15.50;99.90;;;;;;4828839;29;20057;-86
2022/07/22 05:15:56;;;;;;;5.70;2.03;;;15.50;99.90;;;;;;4843919;29;20049;-87
2022/07/22 05:18:21;;;;;;;6.00;1.73;;;15.50;99.90;;;;;;4855721;29;20389;-86
2022/07/22 05:20:47;;;;;;;1.23;1.10;;;15.40;99.90;;;;;;4838057;29;20053;-86
2022/07/22 05:23:13;;;;;;;4.23;1.27;;;15.40;99.90;;;;;;4844746;29;20493;-86
2022/07/22 05:25:39;;;;;;;1.67;1.08;;;15.40;99.90;;;;;;4813885;29;20049;-87
2022/07/22 05:28:05;;;;;;;2.37;0.93;;;15.50;99.90;;;;;;4859406;29;20041;-86
2022/07/22 05:30:31;;;;;;;8.32;2.38;;;15.50;99.90;;;;;;4807525;29;20314;-86
2022/07/22 05:32:57;;;;;;;1.73;1.40;;;15.50;99.90;;;;;;4840126;29;20056;-87
2022/07/22 05:35:25;;;;;;;3.43;1.30;;;15.50;99.90;;;;;;4847338;29;20049;-86
2022/07/22 05:37:50;;;;;;;3.03;1.20;;;15.40;99.90;;;;;;4862071;29;20151;-86
2022/07/22 05:40:16;;;;;;;1.20;1.10;;;15.40;99.90;;;;;;4842921;29;20049;-87
2022/07/22 05:42:42;;;;;;;4.80;1.50;;;15.50;99.90;;;;;;4828630;29;20388;-87
2022/07/22 05:45:08;;;;;;;3.70;1.40;;;15.50;99.90;;;;;;4828502;29;20102;-86
2022/07/22 05:47:34;;;;;;;1.88;1.77;;;15.50;99.90;;;;;;4843944;29;20045;-86
2022/07/22 05:50:00;;;;;;;2.58;1.02;;;15.50;99.90;;;;;;4828372;29;20504;-86
2022/07/22 05:52:25;;;;;;;2.85;1.17;;;15.50;99.90;;;;;;4859476;29;20462;-87
2022/07/22 05:54:51;;;;;;;1.20;1.07;;;15.50;99.90;;;;;;4846395;29;20049;-87
2022/07/22 05:57:19;;;;;;;3.13;1.70;;;15.50;99.90;;;;;;4846397;29;20292;-86
2022/07/22 05:59:45;;;;;;;2.25;1.30;;;15.50;99.90;;;;;;4862088;29;20301;-87
2022/07/22 06:02:10;;;;;;;1.70;1.00;;;15.50;99.90;;;;;;4835831;29;20507;-86
2022/07/22 06:04:39;;;;;;;1.05;0.93;;;16.60;99.90;;;;;;4845353;29;20310;-86
2022/07/22 06:07:06;;;;;;;1.40;1.23;;;15.40;99.90;;;;;;4831308;29;20561;-87
2022/07/22 06:09:34;;;;;;;5.85;1.85;;;15.50;99.90;;;;;;4847108;29;20060;-87
2022/07/22 06:11:59;;;;;;;2.08;1.10;;;15.60;99.90;;;;;;4859316;29;20131;-89
2022/07/22 06:14:25;;;;;;;1.80;1.20;;;15.60;99.90;;;;;;4848213;29;20144;-86
2022/07/22 06:16:51;;;;;;;1.83;1.73;;;15.60;99.90;;;;;;4836473;29;20438;-85
2022/07/22 06:19:17;;;;;;;2.53;1.13;;;15.60;99.90;;;;;;4838171;29;20056;-86
2022/07/22 06:21:42;;;;;;;1.33;1.00;;;15.70;99.90;;;;;;4856179;29;20302;-86
2022/07/22 06:24:08;;;;;;;2.50;1.63;;;15.70;99.90;;;;;;4850049;29;20048;-86
2022/07/22 06:26:34;;;;;;;4.43;1.20;;;15.70;99.90;;;;;;4832462;29;20294;-85
2022/07/22 06:28:59;;;;;;;2.03;1.30;;;15.70;99.90;;;;;;4839454;29;20541;-87
2022/07/22 06:31:25;;;;;;;2.00;1.43;;;15.80;99.90;;;;;;4846588;29;20290;-88
2022/07/22 06:33:51;;;;;;;2.83;1.25;;;16.30;99.90;;;;;;4827979;29;20085;-86
2022/07/22 06:36:17;;;;;;;1.52;1.20;;;15.80;99.90;;;;;;4849202;29;20136;-86
2022/07/22 06:38:44;;;;;;;2.65;1.20;;;15.80;99.90;;;;;;4845094;29;20101;-86
2022/07/22 06:41:10;;;;;;;2.90;2.05;;;15.80;99.90;;;;;;4838953;29;20041;-86
2022/07/22 06:43:36;;;;;;;2.08;1.83;;;15.80;99.90;;;;;;4869077;29;20052;-86
2022/07/22 06:46:04;;;;;;;2.03;1.92;;;15.90;99.90;;;;;;4874059;29;20129;-88
2022/07/22 06:48:30;;;;;;;4.53;1.40;;;15.90;99.90;;;;;;4861569;29;20500;-86
2022/07/22 06:50:56;;;;;;;5.88;1.50;;;15.90;99.90;;;;;;4845143;29;20510;-86
2022/07/22 06:53:21;;;;;;;2.37;1.37;;;16.00;99.90;;;;;;4836291;29;20052;-84
2022/07/22 06:55:47;;;;;;;4.47;2.08;;;16.00;99.90;;;;;;4840291;29;20310;-85
2022/07/22 06:58:13;;;;;;;1.33;1.00;;;16.00;99.90;;;;;;4848523;29;20128;-86
2022/07/22 07:00:39;;;;;;;2.25;1.42;;;16.00;99.90;;;;;;4855913;29;20044;-87
2022/07/22 07:03:04;;;;;;;3.15;1.10;;;16.10;99.90;;;;;;4822739;29;20109;-89
2022/07/22 07:05:30;;;;;;;1.45;1.20;;;16.10;99.90;;;;;;4847814;29;20485;-89
2022/07/22 07:07:56;;;;;;;2.10;1.50;;;16.10;99.90;;;;;;4844107;29;20128;-88
2022/07/22 07:10:22;;;;;;;2.10;1.25;;;16.10;99.90;;;;;;4844256;29;20564;-89
2022/07/22 07:12:48;;;;;;;4.68;2.03;;;16.10;99.90;;;;;;4829950;29;20057;-86
2022/07/22 07:15:14;;;;;;;1.10;1.00;;;16.20;99.90;;;;;;4852496;29;20045;-87
2022/07/22 07:17:39;;;;;;;9.57;1.47;;;16.20;99.90;;;;;;4849007;29;20052;-87
2022/07/22 07:20:06;;;;;;;4.20;1.70;;;16.20;99.90;;;;;;4850286;29;20053;-85
2022/07/22 07:22:32;;;;;;;2.17;1.50;;;16.20;99.90;;;;;;4852148;29;20045;-87
2022/07/22 07:25:03;;;;;;;1.40;1.30;;;16.20;99.90;;;;;;4846486;29;20074;-88
2022/07/22 07:27:29;;;;;;;3.22;1.35;;;16.20;99.90;;;;;;4861926;29;20049;-88
2022/07/22 07:29:55;;;;;;;5.40;2.43;;;16.20;99.90;;;;;;4858714;29;20049;-87
2022/07/22 07:32:20;;;;;;;3.07;2.17;;;16.30;99.90;;;;;;4850566;29;20310;-85
2022/07/22 07:34:46;;;;;;;4.87;1.70;;;16.40;99.90;;;;;;4860222;29;20041;-85
2022/07/22 07:37:12;;;;;;;2.13;1.47;;;16.30;99.90;;;;;;4861378;29;20347;-85
2022/07/22 07:39:37;;;;;;;1.73;1.30;;;16.40;99.90;;;;;;4848438;29;20049;-85
2022/07/22 07:42:03;;;;;;;1.70;1.40;;;16.40;99.90;;;;;;4856622;29;20296;-85
2022/07/22 07:44:29;;;;;;;2.08;1.05;;;16.40;99.90;;;;;;4868380;29;20081;-86
2022/07/22 07:46:54;;;;;;;2.53;1.80;;;16.40;99.90;;;;;;4824305;29;20033;-85
2022/07/22 07:49:20;;;;;;;3.30;1.30;;;16.50;99.90;;;;;;4877927;29;20341;-86
2022/07/22 07:51:46;;;;;;;1.58;1.48;;;16.50;99.90;;;;;;4857566;29;20060;-86
2022/07/22 07:54:11;;;;;;;1.30;1.10;;;16.50;99.90;;;;;;4853785;29;20049;-85
2022/07/22 07:56:37;;;;;;;8.20;1.33;;;16.60;99.90;;;;;;4865539;29;20094;-86
2022/07/22 07:59:03;;;;;;;2.73;1.40;;;16.50;99.90;;;;;;4875601;29;20044;-86
2022/07/22 08:01:29;;;;;;;3.87;1.20;;;16.50;99.90;;;;;;4873341;29;20052;-85
2022/07/22 08:03:54;;;;;;;1.15;1.05;;;16.50;99.90;;;;;;4848998;29;20290;-85
2022/07/22 08:06:20;;;;;;;1.40;1.30;;;16.40;99.90;;;;;;4828741;29;20057;-88
2022/07/22 08:08:46;;;;;;;4.60;1.27;;;16.50;99.90;;;;;;4858131;29;20140;-85
2022/07/22 08:11:12;;;;;;;2.67;1.63;;;16.50;99.90;;;;;;4857875;29;20294;-85
2022/07/22 08:13:37;;;;;;;1.38;1.25;;;16.50;99.90;;;;;;4828016;29;20128;-87
2022/07/22 08:16:04;;;;;;;3.60;1.20;;;16.60;99.90;;;;;;4856206;29;20136;-85
2022/07/22 08:18:30;;;;;;;;;;;16.60;99.90;;;;;;4863479;29;20138;-84
2022/07/22 08:20:56;;;;;;;1.65;1.15;;;16.60;99.90;;;;;;4870491;29;20019;-90
2022/07/22 08:23:22;;;;;;;1.20;1.10;;;16.60;99.90;;;;;;4856397;29;20057;-89
2022/07/22 08:25:48;;;;;;;1.83;1.00;;;16.70;99.90;;;;;;4832013;29;20489;-89
2022/07/22 08:28:13;;;;;;;4.50;1.48;;;16.70;99.90;;;;;;4848352;29;20473;-90
2022/07/22 08:30:40;;;;;;;4.45;1.02;;;16.70;99.90;;;;;;4847564;29;20416;-90
2022/07/22 08:33:06;;;;;;;1.40;1.20;;;16.70;99.90;;;;;;4848272;29;20053;-89
2022/07/22 08:35:32;;;;;;;6.32;0.95;;;16.70;99.90;;;;;;4863166;29;20084;-86
2022/07/22 08:38:00;;;;;;;2.92;2.05;;;16.70;99.90;;;;;;4847616;29;20569;-88
2022/07/22 08:40:29;;;;;;;1.63;1.10;;;16.70;99.90;;;;;;4862074;29;20075;-86
2022/07/22 08:42:54;;;;;;;2.58;1.10;;;17.50;99.90;;;;;;4836402;29;20049;-87
2022/07/22 08:45:20;;;;;;;2.22;1.15;;;16.70;99.90;;;;;;4831817;29;20048;-89
2022/07/22 08:47:54;;;;;;;1.30;1.20;;;16.70;99.90;;;;;;4847952;29;20131;-90
2022/07/22 08:50:19;;;;;;;1.13;0.80;;;16.60;99.90;;;;;;4847304;29;20084;-94
2022/07/22 08:52:50;;;;;;;1.67;1.13;;;16.60;99.90;;;;;;4851583;29;20079;-88
2022/07/22 08:55:19;;;;;;;3.22;1.38;;;16.70;99.90;;;;;;4840897;29;20053;-88
2022/07/22 08:57:51;;;;;;;1.20;1.10;;;16.70;99.90;;;;;;4845744;29;20049;-88
2022/07/22 09:00:22;;;;;;;1.95;1.23;;;17.00;99.90;;;;;;4838719;29;20510;-88
2022/07/22 09:02:49;;;;;;;2.42;0.90;;;16.70;99.90;;;;;;4857388;29;20113;-88
2022/07/22 09:05:16;;;;;;;3.10;1.10;;;16.70;99.90;;;;;;4837421;29;20397;-91
2022/07/22 09:07:43;;;;;;;2.55;1.17;;;16.90;99.90;;;;;;4823589;29;20060;-90
2022/07/22 09:10:19;;;;;;;2.30;1.02;;;16.80;99.90;;;;;;4829061;29;20160;-89
2022/07/22 09:13:04;;;;;;;1.67;1.00;;;16.80;99.90;;;;;;4829931;29;20831;-89
2022/07/22 09:15:54;;;;;;;1.08;0.95;;;16.80;99.90;;;;;;4829015;29;20064;-89
2022/07/22 09:18:23;;;;;;;1.60;1.00;;;16.90;99.90;;;;;;4828778;29;20049;-89
2022/07/22 09:20:58;;;;;;;1.40;0.98;;;16.80;99.90;;;;;;4829130;29;20053;-89
2022/07/22 09:23:26;;;;;;;1.42;1.08;;;16.80;99.90;;;;;;4844095;29;20084;-94
2022/07/22 09:25:55;;;;;;;4.78;1.00;;;16.00;99.90;;;;;;4829101;29;20053;-89
2022/07/22 09:28:22;;;;;;;3.05;1.02;;;16.80;99.90;;;;;;4829059;29;20053;-89
2022/07/22 09:31:02;;;;;;;2.90;0.93;;;16.70;99.90;;;;;;4854610;29;20065;-89
2022/07/22 09:33:28;;;;;;;0.82;0.75;;;16.80;99.90;;;;;;4847707;29;20088;-90
2022/07/22 09:36:03;;;;;;;6.10;1.40;;;16.70;99.90;;;;;;4846306;29;20088;-90
2022/07/22 09:38:34;;;;;;;1.20;1.10;;;16.70;99.90;;;;;;4846729;29;20131;-90
2022/07/22 09:41:04;;;;;;;2.65;1.70;;;16.70;99.90;;;;;;4862394;29;20044;-89
2022/07/22 09:43:38;;;;;;;1.38;1.15;;;16.70;99.90;;;;;;4846243;29;20049;-89
2022/07/22 09:46:06;;;;;;;1.35;1.25;;;16.80;99.90;;;;;;4847143;29;20493;-89
2022/07/22 09:48:32;;;;;;;1.08;0.98;;;16.80;99.90;;;;;;4846574;29;20493;-89
2022/07/22 09:51:00;;;;;;;2.60;0.95;;;17.10;99.90;;;;;;4846648;29;20045;-89
2022/07/22 09:53:28;;;;;;;3.38;1.02;;;16.70;99.90;;;;;;4862351;29;20115;-89
2022/07/22 09:56:02;;;;;;;0.77;0.77;;;16.80;99.90;;;;;;4847084;29;20197;-90
2022/07/22 09:58:29;;;;;;;2.58;1.67;;;16.70;99.90;;;;;;4861905;29;20108;-89
2022/07/22 10:00:59;;;;;;;2.20;1.58;;;16.70;99.90;;;;;;4862304;29;20199;-89
2022/07/22 10:03:30;;;;;;;1.55;1.02;;;16.70;99.90;;;;;;4831795;29;20069;-89
2022/07/22 10:06:00;;;;;;;3.00;0.93;;;16.90;99.90;;;;;;4862038;29;20056;-89
2022/07/22 10:08:31;;;;;;;1.67;0.88;;;16.70;99.90;;;;;;4846887;29;20060;-89
2022/07/22 10:11:01;;;;;;;2.00;1.77;;;16.70;99.90;;;;;;4846878;29;20108;-90
2022/07/22 10:13:30;;;;;;;1.98;0.85;;;16.70;99.90;;;;;;4862170;29;20168;-90
2022/07/22 10:16:02;;;;;;;2.22;1.25;;;16.70;99.90;;;;;;4846084;29;20500;-89
2022/07/22 10:18:34;;;;;;;1.60;1.25;;;16.80;99.90;;;;;;4846233;29;20052;-89
2022/07/22 10:21:13;;;;;;;2.47;1.10;;;16.70;99.90;;;;;;4846732;29;20045;-89
2022/07/22 10:24:09;;;;;;;3.30;1.38;;;16.00;99.90;;;;;;4861829;29;20105;-90
2022/07/22 10:26:50;;;;;;;1.40;0.68;;;15.80;99.90;;;;;;4857311;29;20068;-88
2022/07/22 10:29:39;;;;;;;0.90;0.90;;;16.80;99.90;;;;;;4846126;29;20053;-92
2022/07/22 10:32:17;;;;;;;1.73;1.38;;;16.80;99.90;;;;;;4861924;29;20100;-92
2022/07/22 10:35:06;;;;;;;1.48;0.82;;;16.80;99.90;;;;;;4862434;29;20105;-94
2022/07/22 10:37:35;;;;;;;1.52;0.93;;;17.10;99.90;;;;;;4871689;29;20053;-94
2022/07/22 10:40:16;;;;;;;2.33;1.00;;;16.60;99.90;;;;;;4862327;29;20143;-93
2022/07/22 10:42:59;;;;;;;2.38;1.85;;;16.40;99.90;;;;;;4861785;29;20053;-96
2022/07/22 10:45:32;;;;;;;5.88;0.68;;;16.80;99.90;;;;;;4846591;29;20132;-91
2022/07/22 10:48:09;;;;;;;1.95;1.52;;;16.80;99.90;;;;;;4861964;29;20072;-96
2022/07/22 10:50:37;;;;;;;1.75;1.10;;;16.70;99.90;;;;;;4843894;29;20138;-95
2022/07/22 10:53:05;;;;;;;1.02;0.90;;;16.90;99.90;;;;;;4865659;29;20052;-95
2022/07/22 10:55:31;;;;;;;1.20;1.10;;;16.90;99.90;;;;;;4849564;29;20071;-94
2022/07/22 10:57:59;;;;;;;1.40;1.13;;;16.90;99.90;;;;;;4845604;29;20560;-94
2022/07/22 11:00:26;;;;;;;1.67;1.10;;;17.00;99.90;;;;;;4846696;29;20052;-95
2022/07/22 11:02:51;;;;;;;;;;;17.00;99.90;;;;;;4847864;29;20053;-96
2022/07/22 11:05:30;;;;;;;2.33;1.70;;;17.00;99.90;;;;;;4849919;29;19999;-95
2022/07/22 11:07:57;;;;;;;3.13;0.88;;;17.10;99.90;;;;;;4850470;29;20081;-93
2022/07/22 11:10:26;;;;;;;1.05;0.70;;;17.00;99.90;;;;;;4834228;29;20068;-93
2022/07/22 11:12:51;;;;;;;1.25;0.85;;;17.10;99.90;;;;;;4848694;29;20064;-95
2022/07/22 11:15:17;;;;;;;1.67;1.27;;;17.10;99.90;;;;;;4837762;29;20484;-94
2022/07/22 11:18:14;;;;;;;2.70;1.17;;;17.10;99.90;;;;;;4804634;29;20136;-96
2022/07/22 11:20:44;;;;;;;1.90;1.17;;;17.30;99.90;;;;;;4835856;29;20489;-93
2022/07/22 11:23:12;;;;;;;1.80;0.90;;;17.30;99.90;;;;;;4836230;29;20118;-96
2022/07/22 11:25:38;;;;;;;2.72;0.98;;;17.30;99.90;;;;;;4850720;29;20068;-95
2022/07/22 11:28:14;;;;;;;;;;;;;;;;;;;;;
2022/07/22 11:30:46;;;;;;;0.97;0.80;;;17.40;99.90;;;;;;4857905;29;20100;-91
2022/07/22 11:33:12;;;;;;;1.50;1.10;;;17.40;99.90;;;;;;4872507;29;20289;-96
2022/07/22 11:35:44;;;;;;;;;;;17.50;99.90;;;;;;4858540;29;20088;-96
2022/07/22 11:38:16;;;;;;;0.80;0.80;;;17.50;99.90;;;;;;4871039;29;20419;-96
2022/07/22 11:40:47;;;;;;;0.70;0.60;;;17.50;99.90;;;;;;4872546;29;20101;-92
2022/07/22 11:43:20;;;;;;;0.80;0.70;;;17.50;99.90;;;;;;4857501;29;20055;-96
2022/07/22 11:45:58;;;;;;;0.85;0.75;;;17.60;99.90;;;;;;4855957;29;20056;-96
2022/07/22 11:48:44;;;;;;;1.98;1.17;;;17.60;99.90;;;;;;4859117;29;20112;-96
2022/07/22 11:51:14;;;;;;;0.95;0.88;;;18.50;99.90;;;;;;4854900;29;20072;-96
2022/07/22 11:53:50;;;;;;;0.57;0.57;;;17.30;99.90;;;;;;4856582;29;20080;-96
2022/07/22 11:56:30;;;;;;;0.75;0.73;;;16.90;99.90;;;;;;4845053;29;20076;-96
2022/07/22 11:59:04;;;;;;;0.65;0.60;;;18.40;99.90;;;;;;4855636;29;20049;-96
2022/07/22 12:01:37;;;;;;;0.77;0.63;;;16.90;99.90;;;;;;4859135;29;20068;-96
2022/07/22 12:04:20;;;;;;;0.98;0.77;;;17.90;99.90;;;;;;4860457;29;20097;-96
2022/07/22 12:06:53;;;;;;;0.98;0.70;;;17.60;99.90;;;;;;4861663;29;20131;-96
2022/07/22 12:09:30;;;;;;;1.33;0.82;;;17.70;99.90;;;;;;4844622;29;20172;-96
2022/07/22 12:12:14;;;;;;;2.22;1.10;;;17.70;99.90;;;;;;4896245;29;20049;-96
2022/07/22 12:14:54;;;;;;;3.15;0.90;;;17.80;99.90;;;;;;4851297;29;20089;-96
2022/07/22 12:17:37;;;;;;;;;;;17.80;99.90;;;;;;4863488;29;20109;-96
2022/07/22 12:20:53;;;;;;;1.10;0.80;;;18.20;99.90;;;;;;4861075;29;19956;-96
2022/07/22 12:26:45;;;;;;;1.08;0.70;;;17.60;99.90;;;;;;4876628;29;20089;-96
2022/07/22 12:29:34;;;;;;;0.70;0.70;;;18.00;99.90;;;;;;4848770;29;20049;-96
2022/07/22 12:32:13;;;;;;;1.48;0.85;;;16.90;99.90;;;;;;4859130;29;20057;-96
2022/07/22 12:35:11;;;;;;;0.60;0.60;;;17.40;99.90;;;;;;4860357;29;20068;-96
2022/07/22 12:37:52;;;;;;;1.08;0.85;;;17.40;99.90;;;;;;4847531;29;20049;-96
2022/07/22 12:40:52;;;;;;;1.75;0.60;;;17.40;99.90;;;;;;4846247;29;20113;-96
2022/07/22 12:43:26;;;;;;;0.60;0.47;;;17.50;99.90;;;;;;4860442;29;20060;-96
2022/07/22 12:46:24;;;;;;;0.75;0.75;;;17.10;99.90;;;;;;4861293;29;20093;-96
2022/07/22 12:52:19;;;;;;;0.95;0.70;;;16.90;99.90;;;;;;4874761;29;20053;-96
2022/07/22 12:54:50;;;;;;;0.75;0.57;;;18.40;99.90;;;;;;4846477;29;20057;-96
2022/07/22 12:57:34;;;;;;;;;;;;;;;;;;;;;
2022/07/22 13:00:15;;;;;;;3.15;1.00;;;17.60;99.90;;;;;;4859570;29;20113;-96
2022/07/22 13:02:56;;;;;;;1.85;0.60;;;17.60;99.90;;;;;;4851499;29;20056;-96
2022/07/22 13:05:57;;;;;;;1.45;0.60;;;17.70;99.90;;;;;;4879635;29;20083;-96
2022/07/22 13:08:44;;;;;;;;;;;;;;;;;;;;;